Terminal Aerodrome Forecast
Issued by NWS

Home | Current Version | Previous Version | Text Only | Print | Product List | Glossary On
Versions: 1 2 3 4 5 6 7 8 9 10 11 12 13 14
000
FTUS44 KOUN 162320
TAFWWR
TAF
KWWR 162320Z 1700/1724 VRB05KT P6SM BKN250
     FM170300 06010KT P6SM SCT100 BKN250
     FM170700 02012KT P6SM BKN100
     FM171100 01010KT 5SM -RA SCT015 OVC025
     FM171700 03012KT P6SM BKN015 OVC025 PROB30 1717/1720 5SM -RA
      OVC015=

USA.gov is the U.S. government's official web portal to all federal, state and local government web resources and services.